Boonville, IN

4:05 PM CDT on September 20, 2014 (GMT -0500)
1 mile nw boonville off north street | Change Station
CLOSE
Current Station
Personal Weather Station
Location: Boonville, IN
Elevation: 395 ft
Nearby Weather Stations

Elev 395 ft 38.06 °N, 87.28 °W | Updated 1 second ago

Partly Cloudy
Partly Cloudy
87.7 °F
Feels Like 94 °F
N
7.4
Wind Variable Wind from South
Gusts 11.5 mph

Today
High -- | Low -- °F
--% Chance of Precip.
Yesterday
High -- | Low -- °F
Precip. -- in
6:35 AM 6:49 PM
Waning Crescent, 10% visible
Pressure 29.96 in
Visibility 10.0 miles
Clouds Scattered Clouds 4500 ft
Heat Index 94 °F
Dew Point 71 °F
Humidity 58%
Rainfall 0.01 in
Snow Depth Not available.
UV 3 out of 12
Pollen 6.50 out of 12
Air Quality Not available.
Flu Activity Not available.
METAR KEVV 202054Z 22013KT 10SM SCT045 29/18 A2996 RMK AO2 SLP143 T02940178 56025

More Conditions Fewer Conditions

Pressure 29.96 in
Visibility 10.0 miles
Clouds Scattered Clouds 4500 ft
Heat Index 94 °F
Dew Point 71 °F
Humidity 58%
Rainfall 0.01 in
Snow Depth Not available.
UV 3 out of 12
Pollen 6.50 out of 12
Air Quality Not available.
Flu Activity Not available.
METAR KEVV 202054Z 22013KT 10SM SCT045 29/18 A2996 RMK AO2 SLP143 T02940178 56025

More Conditions Fewer Conditions

10-Day Weather Forecast

Almanac

Astronomy

Sep. 20, 2014 Rise Set
Actual Time 6:35 AM CDT 6:49 PM CDT
Civil Twilight 6:08 AM CDT 7:15 PM CDT
Nautical Twilight 5:37 AM CDT 7:46 PM CDT
Astronomical Twilight 5:06 AM CDT 8:17 PM CDT
Moon 3:16 AM CDT 4:50 PM CDT
Length of Visible Light 13h 06m
Length of Day
12h 14m
Tomorrow will be 2m 26s shorter.
Waning Crescent, 10% of the Moon is Illuminated
Today
Waning Crescent
Sep 24
New
Oct 1
First Quarter
Oct 8
Full
Oct 15
Last Quarter

Today's Extremes

State Highs State Lows

Community

WunderPhotos

Upload Photos

1,754,947 photos uploaded!

WunderBlogs® & News

Nearby

Snow Depth

Station Depth Elevation
No new snow has been reported.

Earthquake Activity

City Distance Mag. Time & Date
No recent earthquake activity has been reported nearby.
Minimum magnitude displayed is 2.5.

Coastal Water Temperatures

Place Temperature
No Stations Reporting

Nearby Weather Stations